sensor_id;sensor_type;location;lat;lon;timestamp;temperature;humidity
13585;DHT22;6863;48.402;9.994;2022-09-11T00:00:29;13.50;99.90
13585;DHT22;6863;48.402;9.994;2022-09-11T00:02:56;13.50;99.90
13585;DHT22;6863;48.402;9.994;2022-09-11T00:05:21;13.40;99.90
13585;DHT22;6863;48.402;9.994;2022-09-11T00:07:47;13.40;99.90
13585;DHT22;6863;48.402;9.994;2022-09-11T00:10:13;13.40;99.90
13585;DHT22;6863;48.402;9.994;2022-09-11T00:12:38;13.40;99.90
13585;DHT22;6863;48.402;9.994;2022-09-11T00:15:04;13.40;99.90
13585;DHT22;6863;48.402;9.994;2022-09-11T00:17:30;13.30;99.90
13585;DHT22;6863;48.402;9.994;2022-09-11T00:19:55;13.40;99.90
13585;DHT22;6863;48.402;9.994;2022-09-11T00:22:21;13.30;99.90
13585;DHT22;6863;48.402;9.994;2022-09-11T00:24:46;13.30;99.90
13585;DHT22;6863;48.402;9.994;2022-09-11T00:27:12;13.30;99.90
13585;DHT22;6863;48.402;9.994;2022-09-11T00:29:38;13.30;99.90
13585;DHT22;6863;48.402;9.994;2022-09-11T00:32:03;13.20;99.90
13585;DHT22;6863;48.402;9.994;2022-09-11T00:34:29;13.20;99.90
13585;DHT22;6863;48.402;9.994;2022-09-11T00:36:54;13.20;99.90
13585;DHT22;6863;48.402;9.994;2022-09-11T00:39:20;13.20;99.90
13585;DHT22;6863;48.402;9.994;2022-09-11T00:41:46;13.20;99.90
13585;DHT22;6863;48.402;9.994;2022-09-11T00:46:52;13.20;99.90
13585;DHT22;6863;48.402;9.994;2022-09-11T00:49:26;13.20;99.90
13585;DHT22;6863;48.402;9.994;2022-09-11T00:51:57;13.20;99.90
13585;DHT22;6863;48.402;9.994;2022-09-11T00:54:27;13.20;99.90
13585;DHT22;6863;48.402;9.994;2022-09-11T00:56:56;13.20;99.90
13585;DHT22;6863;48.402;9.994;2022-09-11T00:59:24;13.20;99.90
13585;DHT22;6863;48.402;9.994;2022-09-11T01:01:52;13.20;99.90
13585;DHT22;6863;48.402;9.994;2022-09-11T01:04:18;13.10;99.90
13585;DHT22;6863;48.402;9.994;2022-09-11T01:06:45;13.10;99.90
13585;DHT22;6863;48.402;9.994;2022-09-11T01:09:12;13.10;99.90
13585;DHT22;6863;48.402;9.994;2022-09-11T01:14:28;13.00;99.90
13585;DHT22;6863;48.402;9.994;2022-09-11T01:17:43;13.00;99.90
13585;DHT22;6863;48.402;9.994;2022-09-11T01:23:20;13.00;99.90
13585;DHT22;6863;48.402;9.994;2022-09-11T01:28:17;13.10;99.90
13585;DHT22;6863;48.402;9.994;2022-09-11T01:30:46;13.10;99.90
13585;DHT22;6863;48.402;9.994;2022-09-11T01:33:27;13.10;99.90
13585;DHT22;6863;48.402;9.994;2022-09-11T01:43:36;13.10;99.90
13585;DHT22;6863;48.402;9.994;2022-09-11T01:46:04;13.20;99.90
13585;DHT22;6863;48.402;9.994;2022-09-11T01:48:39;13.10;99.90
13585;DHT22;6863;48.402;9.994;2022-09-11T01:51:07;13.10;99.90
13585;DHT22;6863;48.402;9.994;2022-09-11T01:53:38;13.10;99.90
13585;DHT22;6863;48.402;9.994;2022-09-11T01:56:13;13.10;99.90
13585;DHT22;6863;48.402;9.994;2022-09-11T01:58:41;13.10;99.90
13585;DHT22;6863;48.402;9.994;2022-09-11T02:01:15;13.10;99.90
13585;DHT22;6863;48.402;9.994;2022-09-11T02:03:52;13.10;99.90
13585;DHT22;6863;48.402;9.994;2022-09-11T02:06:28;13.10;99.90
13585;DHT22;6863;48.402;9.994;2022-09-11T02:09:02;13.20;99.90
13585;DHT22;6863;48.402;9.994;2022-09-11T02:11:34;13.10;99.90
13585;DHT22;6863;48.402;9.994;2022-09-11T02:14:12;13.10;99.90
13585;DHT22;6863;48.402;9.994;2022-09-11T02:16:52;13.10;99.90
13585;DHT22;6863;48.402;9.994;2022-09-11T02:19:26;13.10;99.90
13585;DHT22;6863;48.402;9.994;2022-09-11T02:21:53;13.10;99.90
13585;DHT22;6863;48.402;9.994;2022-09-11T02:24:19;13.10;99.90
13585;DHT22;6863;48.402;9.994;2022-09-11T02:26:51;13.10;99.90
13585;DHT22;6863;48.402;9.994;2022-09-11T02:29:19;13.10;99.90
13585;DHT22;6863;48.402;9.994;2022-09-11T02:31:45;13.10;99.90
13585;DHT22;6863;48.402;9.994;2022-09-11T02:34:13;13.10;99.90
13585;DHT22;6863;48.402;9.994;2022-09-11T02:42:38;13.10;99.90
13585;DHT22;6863;48.402;9.994;2022-09-11T03:01:47;13.10;99.90
13585;DHT22;6863;48.402;9.994;2022-09-11T03:04:13;13.20;99.90
13585;DHT22;6863;48.402;9.994;2022-09-11T03:06:40;13.10;99.90
13585;DHT22;6863;48.402;9.994;2022-09-11T03:09:08;13.10;99.90
13585;DHT22;6863;48.402;9.994;2022-09-11T03:11:33;13.10;99.90
13585;DHT22;6863;48.402;9.994;2022-09-11T03:14:00;13.00;99.90
13585;DHT22;6863;48.402;9.994;2022-09-11T03:16:26;13.00;99.90
13585;DHT22;6863;48.402;9.994;2022-09-11T03:18:52;12.90;99.90
13585;DHT22;6863;48.402;9.994;2022-09-11T03:21:17;12.90;99.90
13585;DHT22;6863;48.402;9.994;2022-09-11T03:23:43;13.00;99.90
13585;DHT22;6863;48.402;9.994;2022-09-11T03:28:40;12.90;99.90
13585;DHT22;6863;48.402;9.994;2022-09-11T03:31:06;12.90;99.90
13585;DHT22;6863;48.402;9.994;2022-09-11T03:33:33;12.90;99.90
13585;DHT22;6863;48.402;9.994;2022-09-11T03:35:59;13.00;99.90
13585;DHT22;6863;48.402;9.994;2022-09-11T03:38:24;12.90;99.90
13585;DHT22;6863;48.402;9.994;2022-09-11T03:40:50;12.90;99.90
13585;DHT22;6863;48.402;9.994;2022-09-11T03:43:16;12.90;99.90
13585;DHT22;6863;48.402;9.994;2022-09-11T03:45:42;12.90;99.90
13585;DHT22;6863;48.402;9.994;2022-09-11T03:48:09;13.00;99.90
13585;DHT22;6863;48.402;9.994;2022-09-11T03:50:34;12.90;99.90
13585;DHT22;6863;48.402;9.994;2022-09-11T03:53:00;12.90;99.90
13585;DHT22;6863;48.402;9.994;2022-09-11T03:55:26;12.90;99.90
13585;DHT22;6863;48.402;9.994;2022-09-11T03:57:51;12.90;99.90
13585;DHT22;6863;48.402;9.994;2022-09-11T04:00:17;12.80;99.90
13585;DHT22;6863;48.402;9.994;2022-09-11T04:02:42;12.90;99.90
13585;DHT22;6863;48.402;9.994;2022-09-11T04:05:08;12.90;99.90
13585;DHT22;6863;48.402;9.994;2022-09-11T04:07:34;12.90;99.90
13585;DHT22;6863;48.402;9.994;2022-09-11T04:10:00;12.90;99.90
13585;DHT22;6863;48.402;9.994;2022-09-11T04:12:25;12.80;99.90
13585;DHT22;6863;48.402;9.994;2022-09-11T04:14:51;12.70;99.90
13585;DHT22;6863;48.402;9.994;2022-09-11T04:17:17;12.70;99.90
13585;DHT22;6863;48.402;9.994;2022-09-11T04:19:43;12.80;99.90
13585;DHT22;6863;48.402;9.994;2022-09-11T04:22:09;12.70;99.90
13585;DHT22;6863;48.402;9.994;2022-09-11T04:24:34;12.80;99.90
13585;DHT22;6863;48.402;9.994;2022-09-11T04:27:00;12.80;99.90
13585;DHT22;6863;48.402;9.994;2022-09-11T04:29:27;12.80;99.90
13585;DHT22;6863;48.402;9.994;2022-09-11T04:31:52;12.80;99.90
13585;DHT22;6863;48.402;9.994;2022-09-11T04:34:18;12.80;99.90
13585;DHT22;6863;48.402;9.994;2022-09-11T04:36:44;12.80;99.90
13585;DHT22;6863;48.402;9.994;2022-09-11T04:39:10;12.70;99.90
13585;DHT22;6863;48.402;9.994;2022-09-11T04:41:35;12.70;99.90
13585;DHT22;6863;48.402;9.994;2022-09-11T04:44:01;12.60;99.90
13585;DHT22;6863;48.402;9.994;2022-09-11T04:46:27;12.60;99.90
13585;DHT22;6863;48.402;9.994;2022-09-11T04:48:54;12.50;99.90
13585;DHT22;6863;48.402;9.994;2022-09-11T04:53:56;12.50;99.90
13585;DHT22;6863;48.402;9.994;2022-09-11T04:56:33;12.50;99.90
13585;DHT22;6863;48.402;9.994;2022-09-11T04:59:02;12.50;99.90
13585;DHT22;6863;48.402;9.994;2022-09-11T05:01:29;12.50;99.90
13585;DHT22;6863;48.402;9.994;2022-09-11T05:03:55;12.50;99.90
13585;DHT22;6863;48.402;9.994;2022-09-11T05:06:21;12.50;99.90
13585;DHT22;6863;48.402;9.994;2022-09-11T05:08:47;12.50;99.90
13585;DHT22;6863;48.402;9.994;2022-09-11T05:11:15;12.60;99.90
13585;DHT22;6863;48.402;9.994;2022-09-11T05:13:42;12.60;99.90
13585;DHT22;6863;48.402;9.994;2022-09-11T05:16:10;12.60;99.90
13585;DHT22;6863;48.402;9.994;2022-09-11T05:18:36;12.60;99.90
13585;DHT22;6863;48.402;9.994;2022-09-11T05:21:05;12.60;99.90
13585;DHT22;6863;48.402;9.994;2022-09-11T05:23:31;12.60;99.90
13585;DHT22;6863;48.402;9.994;2022-09-11T05:28:34;12.50;99.90
13585;DHT22;6863;48.402;9.994;2022-09-11T05:30:59;12.50;99.90
13585;DHT22;6863;48.402;9.994;2022-09-11T05:33:27;12.50;99.90
13585;DHT22;6863;48.402;9.994;2022-09-11T05:35:54;12.60;99.90
13585;DHT22;6863;48.402;9.994;2022-09-11T05:38:20;12.60;99.90
13585;DHT22;6863;48.402;9.994;2022-09-11T05:40:49;12.60;99.90
13585;DHT22;6863;48.402;9.994;2022-09-11T05:43:16;12.70;99.90
13585;DHT22;6863;48.402;9.994;2022-09-11T05:45:42;12.70;99.90
13585;DHT22;6863;48.402;9.994;2022-09-11T05:48:08;12.80;99.90
13585;DHT22;6863;48.402;9.994;2022-09-11T05:50:35;12.90;99.90
13585;DHT22;6863;48.402;9.994;2022-09-11T05:53:01;13.00;99.90
13585;DHT22;6863;48.402;9.994;2022-09-11T05:55:27;13.00;99.90
13585;DHT22;6863;48.402;9.994;2022-09-11T05:57:52;13.10;99.90
13585;DHT22;6863;48.402;9.994;2022-09-11T06:00:19;13.20;99.90
13585;DHT22;6863;48.402;9.994;2022-09-11T06:02:46;13.10;99.90
13585;DHT22;6863;48.402;9.994;2022-09-11T06:05:13;13.20;99.90
13585;DHT22;6863;48.402;9.994;2022-09-11T06:07:39;13.20;99.90
13585;DHT22;6863;48.402;9.994;2022-09-11T06:10:05;13.30;99.90
13585;DHT22;6863;48.402;9.994;2022-09-11T06:12:31;13.30;99.90
13585;DHT22;6863;48.402;9.994;2022-09-11T06:14:57;13.40;99.90
13585;DHT22;6863;48.402;9.994;2022-09-11T06:17:22;13.60;99.90
13585;DHT22;6863;48.402;9.994;2022-09-11T06:19:48;13.70;99.90
13585;DHT22;6863;48.402;9.994;2022-09-11T06:22:14;13.90;99.90
13585;DHT22;6863;48.402;9.994;2022-09-11T06:24:39;14.10;99.90
13585;DHT22;6863;48.402;9.994;2022-09-11T06:27:05;14.40;99.90
13585;DHT22;6863;48.402;9.994;2022-09-11T06:29:31;14.70;99.90
13585;DHT22;6863;48.402;9.994;2022-09-11T06:31:57;14.80;99.90
13585;DHT22;6863;48.402;9.994;2022-09-11T06:34:24;15.00;99.90
13585;DHT22;6863;48.402;9.994;2022-09-11T06:36:51;15.20;99.90
13585;DHT22;6863;48.402;9.994;2022-09-11T06:39:16;15.20;99.90
13585;DHT22;6863;48.402;9.994;2022-09-11T06:41:44;15.30;99.90
13585;DHT22;6863;48.402;9.994;2022-09-11T06:44:11;15.40;99.90
13585;DHT22;6863;48.402;9.994;2022-09-11T06:46:37;15.50;99.90
13585;DHT22;6863;48.402;9.994;2022-09-11T06:49:04;15.70;99.90
13585;DHT22;6863;48.402;9.994;2022-09-11T06:51:30;15.80;99.90
13585;DHT22;6863;48.402;9.994;2022-09-11T06:53:58;15.90;99.90
13585;DHT22;6863;48.402;9.994;2022-09-11T06:56:27;16.20;99.90
13585;DHT22;6863;48.402;9.994;2022-09-11T06:58:53;16.30;99.90
13585;DHT22;6863;48.402;9.994;2022-09-11T07:01:20;16.40;99.90
13585;DHT22;6863;48.402;9.994;2022-09-11T07:03:48;16.30;99.90
13585;DHT22;6863;48.402;9.994;2022-09-11T07:06:15;16.40;99.90
13585;DHT22;6863;48.402;9.994;2022-09-11T07:08:41;16.60;99.90
13585;DHT22;6863;48.402;9.994;2022-09-11T07:11:07;16.70;99.90
13585;DHT22;6863;48.402;9.994;2022-09-11T07:13:33;16.90;99.90
13585;DHT22;6863;48.402;9.994;2022-09-11T07:16:02;17.20;99.90
13585;DHT22;6863;48.402;9.994;2022-09-11T07:18:35;17.20;99.90
13585;DHT22;6863;48.402;9.994;2022-09-11T07:21:09;17.50;99.90
13585;DHT22;6863;48.402;9.994;2022-09-11T07:23:36;17.90;99.90
13585;DHT22;6863;48.402;9.994;2022-09-11T07:28:33;18.00;99.90
13585;DHT22;6863;48.402;9.994;2022-09-11T07:31:11;18.20;99.90
13585;DHT22;6863;48.402;9.994;2022-09-11T07:33:38;18.20;99.90
13585;DHT22;6863;48.402;9.994;2022-09-11T07:36:08;18.30;99.90
13585;DHT22;6863;48.402;9.994;2022-09-11T07:38:37;18.00;99.90
13585;DHT22;6863;48.402;9.994;2022-09-11T07:41:06;17.60;99.90
13585;DHT22;6863;48.402;9.994;2022-09-11T07:43:34;17.80;99.90
13585;DHT22;6863;48.402;9.994;2022-09-11T07:46:00;17.80;99.90
13585;DHT22;6863;48.402;9.994;2022-09-11T07:48:25;17.90;99.90
13585;DHT22;6863;48.402;9.994;2022-09-11T07:51:02;18.60;99.90
13585;DHT22;6863;48.402;9.994;2022-09-11T07:53:39;19.80;99.90
13585;DHT22;6863;48.402;9.994;2022-09-11T07:56:08;20.40;98.50
13585;DHT22;6863;48.402;9.994;2022-09-11T07:58:35;20.60;97.70
13585;DHT22;6863;48.402;9.994;2022-09-11T08:01:05;20.50;96.50
13585;DHT22;6863;48.402;9.994;2022-09-11T08:03:33;20.80;96.50
13585;DHT22;6863;48.402;9.994;2022-09-11T08:06:02;20.90;95.20
13585;DHT22;6863;48.402;9.994;2022-09-11T08:08:28;20.60;95.90
13585;DHT22;6863;48.402;9.994;2022-09-11T08:10:55;20.70;95.20
13585;DHT22;6863;48.402;9.994;2022-09-11T08:13:21;20.70;95.80
13585;DHT22;6863;48.402;9.994;2022-09-11T08:15:50;21.40;95.50
13585;DHT22;6863;48.402;9.994;2022-09-11T08:18:16;22.40;94.60
13585;DHT22;6863;48.402;9.994;2022-09-11T08:20:41;24.20;91.40
13585;DHT22;6863;48.402;9.994;2022-09-11T08:23:07;24.80;83.90
13585;DHT22;6863;48.402;9.994;2022-09-11T08:25:35;25.80;82.30
13585;DHT22;6863;48.402;9.994;2022-09-11T08:28:01;27.70;76.50
13585;DHT22;6863;48.402;9.994;2022-09-11T08:30:27;26.90;70.20
13585;DHT22;6863;48.402;9.994;2022-09-11T08:32:52;26.80;72.10
13585;DHT22;6863;48.402;9.994;2022-09-11T08:35:18;27.40;70.50
13585;DHT22;6863;48.402;9.994;2022-09-11T08:37:44;26.90;68.20
13585;DHT22;6863;48.402;9.994;2022-09-11T08:40:10;26.40;68.60
13585;DHT22;6863;48.402;9.994;2022-09-11T08:42:39;27.30;66.10
13585;DHT22;6863;48.402;9.994;2022-09-11T08:45:06;26.40;66.20
13585;DHT22;6863;48.402;9.994;2022-09-11T08:47:36;24.90;69.60
13585;DHT22;6863;48.402;9.994;2022-09-11T08:50:15;24.10;74.70
13585;DHT22;6863;48.402;9.994;2022-09-11T08:52:44;24.50;74.30
13585;DHT22;6863;48.402;9.994;2022-09-11T08:55:14;25.80;71.50
13585;DHT22;6863;48.402;9.994;2022-09-11T09:00:26;25.10;68.80
13585;DHT22;6863;48.402;9.994;2022-09-11T09:03:40;25.50;71.20
13585;DHT22;6863;48.402;9.994;2022-09-11T09:09:15;26.00;66.70
13585;DHT22;6863;48.402;9.994;2022-09-11T09:12:00;24.40;70.20
13585;DHT22;6863;48.402;9.994;2022-09-11T09:17:11;23.90;72.30
13585;DHT22;6863;48.402;9.994;2022-09-11T09:19:51;24.00;73.80
13585;DHT22;6863;48.402;9.994;2022-09-11T09:25:11;25.70;68.80
13585;DHT22;6863;48.402;9.994;2022-09-11T09:27:48;24.10;71.60
13585;DHT22;6863;48.402;9.994;2022-09-11T09:30:18;24.20;73.60
13585;DHT22;6863;48.402;9.994;2022-09-11T09:32:58;26.30;67.90
13585;DHT22;6863;48.402;9.994;2022-09-11T09:35:39;26.90;65.80
13585;DHT22;6863;48.402;9.994;2022-09-11T09:38:26;26.40;64.00
13585;DHT22;6863;48.402;9.994;2022-09-11T09:44:08;25.60;65.30
13585;DHT22;6863;48.402;9.994;2022-09-11T09:46:43;23.80;67.10
13585;DHT22;6863;48.402;9.994;2022-09-11T09:49:10;23.50;71.50
13585;DHT22;6863;48.402;9.994;2022-09-11T09:51:39;24.00;72.20
13585;DHT22;6863;48.402;9.994;2022-09-11T09:54:07;24.80;69.10
13585;DHT22;6863;48.402;9.994;2022-09-11T09:56:35;25.00;68.90
13585;DHT22;6863;48.402;9.994;2022-09-11T09:59:13;24.60;68.30
13585;DHT22;6863;48.402;9.994;2022-09-11T10:01:52;23.90;70.30
13585;DHT22;6863;48.402;9.994;2022-09-11T10:04:26;24.10;71.60
13585;DHT22;6863;48.402;9.994;2022-09-11T10:07:11;24.20;72.00
13585;DHT22;6863;48.402;9.994;2022-09-11T10:09:46;24.60;70.30
13585;DHT22;6863;48.402;9.994;2022-09-11T10:12:24;24.80;68.80
13585;DHT22;6863;48.402;9.994;2022-09-11T10:15:01;24.80;68.60
13585;DHT22;6863;48.402;9.994;2022-09-11T10:17:30;25.60;66.60
13585;DHT22;6863;48.402;9.994;2022-09-11T10:22:43;28.20;58.90
13585;DHT22;6863;48.402;9.994;2022-09-11T10:25:16;28.40;57.80
13585;DHT22;6863;48.402;9.994;2022-09-11T10:33:00;27.10;59.00
13585;DHT22;6863;48.402;9.994;2022-09-11T10:35:28;27.60;58.70
13585;DHT22;6863;48.402;9.994;2022-09-11T10:38:22;29.20;56.10
13585;DHT22;6863;48.402;9.994;2022-09-11T10:41:18;31.90;49.70
13585;DHT22;6863;48.402;9.994;2022-09-11T10:43:56;32.20;46.50
13585;DHT22;6863;48.402;9.994;2022-09-11T10:46:37;29.10;50.00
13585;DHT22;6863;48.402;9.994;2022-09-11T10:49:20;28.40;52.30
13585;DHT22;6863;48.402;9.994;2022-09-11T10:55:06;25.70;57.70
13585;DHT22;6863;48.402;9.994;2022-09-11T10:57:47;25.30;59.10
13585;DHT22;6863;48.402;9.994;2022-09-11T11:00:24;25.60;59.40
13585;DHT22;6863;48.402;9.994;2022-09-11T11:05:34;27.80;55.30
13585;DHT22;6863;48.402;9.994;2022-09-11T11:25:21;31.30;44.70
13585;DHT22;6863;48.402;9.994;2022-09-11T11:30:57;35.00;39.30
13585;DHT22;6863;48.402;9.994;2022-09-11T11:36:29;34.20;37.30
13585;DHT22;6863;48.402;9.994;2022-09-11T11:39:00;33.60;37.20
13585;DHT22;6863;48.402;9.994;2022-09-11T11:41:44;32.30;38.10
13585;DHT22;6863;48.402;9.994;2022-09-11T11:44:14;31.60;40.80
13585;DHT22;6863;48.402;9.994;2022-09-11T11:46:47;31.80;41.00
13585;DHT22;6863;48.402;9.994;2022-09-11T11:49:34;32.20;40.20
13585;DHT22;6863;48.402;9.994;2022-09-11T11:52:42;33.50;39.30
13585;DHT22;6863;48.402;9.994;2022-09-11T11:55:22;34.20;35.90
13585;DHT22;6863;48.402;9.994;2022-09-11T11:58:51;32.60;38.90
13585;DHT22;6863;48.402;9.994;2022-09-11T12:01:00;33.80;38.20
13585;DHT22;6863;48.402;9.994;2022-09-11T12:06:01;33.40;37.50
13585;DHT22;6863;48.402;9.994;2022-09-11T12:08:28;32.50;39.50
13585;DHT22;6863;48.402;9.994;2022-09-11T12:11:03;31.40;41.70
13585;DHT22;6863;48.402;9.994;2022-09-11T12:13:33;30.60;43.90
13585;DHT22;6863;48.402;9.994;2022-09-11T12:16:23;30.50;44.10
13585;DHT22;6863;48.402;9.994;2022-09-11T12:19:15;30.30;44.20
13585;DHT22;6863;48.402;9.994;2022-09-11T12:22:02;30.90;43.70
13585;DHT22;6863;48.402;9.994;2022-09-11T12:24:55;31.70;42.70
13585;DHT22;6863;48.402;9.994;2022-09-11T12:32:45;32.50;39.10
13585;DHT22;6863;48.402;9.994;2022-09-11T12:35:17;32.90;39.00
13585;DHT22;6863;48.402;9.994;2022-09-11T12:46:04;35.50;35.80
13585;DHT22;6863;48.402;9.994;2022-09-11T12:48:37;36.90;33.70
13585;DHT22;6863;48.402;9.994;2022-09-11T12:53:45;36.40;33.40
13585;DHT22;6863;48.402;9.994;2022-09-11T12:56:20;37.40;31.40
13585;DHT22;6863;48.402;9.994;2022-09-11T12:59:00;38.10;30.80
13585;DHT22;6863;48.402;9.994;2022-09-11T13:01:40;37.80;29.70
13585;DHT22;6863;48.402;9.994;2022-09-11T13:06:55;36.40;31.40
13585;DHT22;6863;48.402;9.994;2022-09-11T13:09:40;37.30;30.90
13585;DHT22;6863;48.402;9.994;2022-09-11T13:14:54;37.50;30.70
13585;DHT22;6863;48.402;9.994;2022-09-11T13:17:32;37.60;30.50
13585;DHT22;6863;48.402;9.994;2022-09-11T13:22:31;35.10;33.00
13585;DHT22;6863;48.402;9.994;2022-09-11T13:25:08;33.10;36.20
13585;DHT22;6863;48.402;9.994;2022-09-11T13:27:35;31.80;38.90
13585;DHT22;6863;48.402;9.994;2022-09-11T13:30:07;30.70;40.90
13585;DHT22;6863;48.402;9.994;2022-09-11T13:32:33;29.90;42.20
13585;DHT22;6863;48.402;9.994;2022-09-11T13:35:22;28.60;44.50
13585;DHT22;6863;48.402;9.994;2022-09-11T13:37:57;27.90;45.90
13585;DHT22;6863;48.402;9.994;2022-09-11T13:40:36;27.10;47.60
13585;DHT22;6863;48.402;9.994;2022-09-11T13:43:03;26.70;49.10
13585;DHT22;6863;48.402;9.994;2022-09-11T13:45:29;26.60;49.20
13585;DHT22;6863;48.402;9.994;2022-09-11T13:47:55;26.40;49.50
13585;DHT22;6863;48.402;9.994;2022-09-11T13:50:22;25.90;49.60
13585;DHT22;6863;48.402;9.994;2022-09-11T13:52:50;25.30;51.20
13585;DHT22;6863;48.402;9.994;2022-09-11T13:55:19;25.00;51.90
13585;DHT22;6863;48.402;9.994;2022-09-11T13:57:54;24.60;53.90
13585;DHT22;6863;48.402;9.994;2022-09-11T14:00:46;24.40;53.80
13585;DHT22;6863;48.402;9.994;2022-09-11T14:03:28;24.70;53.60
13585;DHT22;6863;48.402;9.994;2022-09-11T14:06:00;25.70;52.90
13585;DHT22;6863;48.402;9.994;2022-09-11T14:14:25;33.50;36.90
13585;DHT22;6863;48.402;9.994;2022-09-11T14:16:35;31.30;37.90
13585;DHT22;6863;48.402;9.994;2022-09-11T14:19:25;29.00;41.80
13585;DHT22;6863;48.402;9.994;2022-09-11T14:21:52;27.80;44.80
13585;DHT22;6863;48.402;9.994;2022-09-11T14:26:49;26.80;49.30
13585;DHT22;6863;48.402;9.994;2022-09-11T14:29:26;28.90;47.10
13585;DHT22;6863;48.402;9.994;2022-09-11T14:32:28;30.90;43.30
13585;DHT22;6863;48.402;9.994;2022-09-11T14:34:56;33.40;39.60
13585;DHT22;6863;48.402;9.994;2022-09-11T14:37:24;34.10;37.50
13585;DHT22;6863;48.402;9.994;2022-09-11T14:39:57;35.70;34.50
13585;DHT22;6863;48.402;9.994;2022-09-11T14:42:28;36.60;32.20
13585;DHT22;6863;48.402;9.994;2022-09-11T14:44:55;37.60;30.10
13585;DHT22;6863;48.402;9.994;2022-09-11T14:47:27;37.60;30.00
13585;DHT22;6863;48.402;9.994;2022-09-11T14:49:55;37.50;29.30
13585;DHT22;6863;48.402;9.994;2022-09-11T14:52:24;36.50;30.60
13585;DHT22;6863;48.402;9.994;2022-09-11T14:54:52;36.10;31.00
13585;DHT22;6863;48.402;9.994;2022-09-11T14:57:20;36.50;30.00
13585;DHT22;6863;48.402;9.994;2022-09-11T14:59:50;37.00;29.90
13585;DHT22;6863;48.402;9.994;2022-09-11T15:02:25;37.40;29.10
13585;DHT22;6863;48.402;9.994;2022-09-11T15:04:52;37.40;29.10
13585;DHT22;6863;48.402;9.994;2022-09-11T15:07:19;37.70;28.90
13585;DHT22;6863;48.402;9.994;2022-09-11T15:09:45;37.90;28.90
13585;DHT22;6863;48.402;9.994;2022-09-11T15:12:12;37.00;29.40
13585;DHT22;6863;48.402;9.994;2022-09-11T15:14:39;36.10;30.30
13585;DHT22;6863;48.402;9.994;2022-09-11T15:17:07;34.90;31.90
13585;DHT22;6863;48.402;9.994;2022-09-11T15:19:33;33.40;34.20
13585;DHT22;6863;48.402;9.994;2022-09-11T15:22:03;32.10;36.00
13585;DHT22;6863;48.402;9.994;2022-09-11T15:24:29;30.90;38.30
13585;DHT22;6863;48.402;9.994;2022-09-11T15:26:55;29.90;39.80
13585;DHT22;6863;48.402;9.994;2022-09-11T15:29:23;29.10;41.70
13585;DHT22;6863;48.402;9.994;2022-09-11T15:31:50;28.60;43.00
13585;DHT22;6863;48.402;9.994;2022-09-11T15:34:18;28.20;44.10
13585;DHT22;6863;48.402;9.994;2022-09-11T15:36:44;27.70;45.00
13585;DHT22;6863;48.402;9.994;2022-09-11T15:39:14;27.20;45.70
13585;DHT22;6863;48.402;9.994;2022-09-11T15:41:44;26.90;46.40
13585;DHT22;6863;48.402;9.994;2022-09-11T15:44:11;26.50;46.90
13585;DHT22;6863;48.402;9.994;2022-09-11T15:46:38;26.20;47.50
13585;DHT22;6863;48.402;9.994;2022-09-11T15:49:03;25.90;47.80
13585;DHT22;6863;48.402;9.994;2022-09-11T15:51:31;25.50;49.30
13585;DHT22;6863;48.402;9.994;2022-09-11T15:54:00;25.20;50.40
13585;DHT22;6863;48.402;9.994;2022-09-11T15:56:27;24.90;51.80
13585;DHT22;6863;48.402;9.994;2022-09-11T15:58:58;24.70;51.80
13585;DHT22;6863;48.402;9.994;2022-09-11T16:01:28;24.50;52.30
13585;DHT22;6863;48.402;9.994;2022-09-11T16:04:01;24.40;53.00
13585;DHT22;6863;48.402;9.994;2022-09-11T16:06:29;24.20;53.90
13585;DHT22;6863;48.402;9.994;2022-09-11T16:08:56;24.00;54.20
13585;DHT22;6863;48.402;9.994;2022-09-11T16:11:22;23.80;54.30
13585;DHT22;6863;48.402;9.994;2022-09-11T16:13:52;23.70;55.10
13585;DHT22;6863;48.402;9.994;2022-09-11T16:16:18;23.50;55.50
13585;DHT22;6863;48.402;9.994;2022-09-11T16:18:45;23.30;56.30
13585;DHT22;6863;48.402;9.994;2022-09-11T16:21:12;23.20;56.70
13585;DHT22;6863;48.402;9.994;2022-09-11T16:23:39;23.00;57.00
13585;DHT22;6863;48.402;9.994;2022-09-11T16:26:07;22.90;57.70
13585;DHT22;6863;48.402;9.994;2022-09-11T16:28:34;22.80;58.00
13585;DHT22;6863;48.402;9.994;2022-09-11T16:31:01;22.60;58.00
13585;DHT22;6863;48.402;9.994;2022-09-11T16:33:28;22.50;58.40
13585;DHT22;6863;48.402;9.994;2022-09-11T16:36:00;22.40;58.60
13585;DHT22;6863;48.402;9.994;2022-09-11T16:38:29;22.30;58.80
13585;DHT22;6863;48.402;9.994;2022-09-11T16:41:01;22.30;58.80
13585;DHT22;6863;48.402;9.994;2022-09-11T16:43:27;22.20;58.60
13585;DHT22;6863;48.402;9.994;2022-09-11T16:45:53;22.20;59.00
13585;DHT22;6863;48.402;9.994;2022-09-11T16:48:18;22.20;59.20
13585;DHT22;6863;48.402;9.994;2022-09-11T16:50:52;22.10;59.30
13585;DHT22;6863;48.402;9.994;2022-09-11T16:53:19;22.00;59.50
13585;DHT22;6863;48.402;9.994;2022-09-11T16:55:45;22.00;60.00
13585;DHT22;6863;48.402;9.994;2022-09-11T16:58:11;21.80;60.30
13585;DHT22;6863;48.402;9.994;2022-09-11T17:00:38;21.80;61.10
13585;DHT22;6863;48.402;9.994;2022-09-11T17:03:04;21.60;61.20
13585;DHT22;6863;48.402;9.994;2022-09-11T17:05:31;21.50;61.60
13585;DHT22;6863;48.402;9.994;2022-09-11T17:07:56;21.50;64.00
13585;DHT22;6863;48.402;9.994;2022-09-11T17:10:22;21.40;65.70
13585;DHT22;6863;48.402;9.994;2022-09-11T17:12:48;21.30;66.30
13585;DHT22;6863;48.402;9.994;2022-09-11T17:15:14;21.20;67.70
13585;DHT22;6863;48.402;9.994;2022-09-11T17:17:40;20.90;68.90
13585;DHT22;6863;48.402;9.994;2022-09-11T17:20:08;20.80;69.80
13585;DHT22;6863;48.402;9.994;2022-09-11T17:22:36;20.60;70.40
13585;DHT22;6863;48.402;9.994;2022-09-11T17:25:02;20.50;71.90
13585;DHT22;6863;48.402;9.994;2022-09-11T17:27:28;20.40;72.60
13585;DHT22;6863;48.402;9.994;2022-09-11T17:29:54;20.20;73.70
13585;DHT22;6863;48.402;9.994;2022-09-11T17:32:19;20.10;74.80
13585;DHT22;6863;48.402;9.994;2022-09-11T17:34:47;19.90;75.90
13585;DHT22;6863;48.402;9.994;2022-09-11T17:37:13;19.80;76.80
13585;DHT22;6863;48.402;9.994;2022-09-11T17:39:38;19.60;77.90
13585;DHT22;6863;48.402;9.994;2022-09-11T17:42:06;19.50;79.10
13585;DHT22;6863;48.402;9.994;2022-09-11T17:44:32;19.40;80.50
13585;DHT22;6863;48.402;9.994;2022-09-11T17:46:58;19.30;82.00
13585;DHT22;6863;48.402;9.994;2022-09-11T17:49:27;19.10;82.60
13585;DHT22;6863;48.402;9.994;2022-09-11T17:51:53;19.00;83.80
13585;DHT22;6863;48.402;9.994;2022-09-11T17:54:19;18.90;85.10
13585;DHT22;6863;48.402;9.994;2022-09-11T17:56:44;18.80;86.60
13585;DHT22;6863;48.402;9.994;2022-09-11T17:59:10;18.80;88.00
13585;DHT22;6863;48.402;9.994;2022-09-11T18:01:35;18.70;89.30
13585;DHT22;6863;48.402;9.994;2022-09-11T18:04:01;18.60;90.40
13585;DHT22;6863;48.402;9.994;2022-09-11T18:06:29;18.50;90.80
13585;DHT22;6863;48.402;9.994;2022-09-11T18:08:57;18.40;91.40
13585;DHT22;6863;48.402;9.994;2022-09-11T18:11:27;18.30;92.00
13585;DHT22;6863;48.402;9.994;2022-09-11T18:13:52;18.20;92.70
13585;DHT22;6863;48.402;9.994;2022-09-11T18:16:20;18.10;93.40
13585;DHT22;6863;48.402;9.994;2022-09-11T18:18:46;18.00;93.80